createdAt,value
2022-08-26T00:02:16.168Z,61.80
2022-08-26T00:06:35.548Z,62.17
2022-08-26T00:10:52.822Z,61.91
2022-08-26T00:15:11.307Z,61.54
2022-08-26T00:19:27.781Z,61.92
2022-08-26T00:23:44.603Z,62.70
2022-08-26T00:28:01.264Z,62.76
2022-08-26T00:32:17.308Z,63.13
2022-08-26T00:36:33.764Z,62.96
2022-08-26T00:40:52.545Z,62.79
2022-08-26T00:45:11.563Z,63.23
2022-08-26T00:49:45.071Z,63.54
2022-08-26T00:54:05.688Z,62.81
2022-08-26T00:58:25.026Z,63.18
2022-08-26T01:02:46.794Z,63.23
2022-08-26T01:07:05.056Z,63.57
2022-08-26T01:11:21.632Z,63.74
2022-08-26T01:15:43.914Z,63.76
2022-08-26T01:20:45.762Z,63.75
2022-08-26T01:25:03.447Z,63.90
2022-08-26T01:29:20.289Z,63.72
2022-08-26T01:34:14.003Z,62.67
2022-08-26T01:38:30.850Z,63.06
2022-08-26T01:42:49.357Z,63.08
2022-08-26T01:47:06.776Z,63.21
2022-08-26T01:51:25.349Z,62.98
2022-08-26T01:55:44.672Z,62.97
2022-08-26T02:00:02.490Z,62.96
2022-08-26T02:04:28.827Z,62.89
2022-08-26T02:08:48.115Z,63.27
2022-08-26T02:13:09.103Z,63.08
2022-08-26T02:17:35.158Z,62.89
2022-08-26T02:21:52.228Z,63.28
2022-08-26T02:26:12.557Z,63.65
2022-08-26T02:30:34.257Z,63.79
2022-08-26T02:34:50.492Z,63.67
2022-08-26T02:39:07.394Z,63.81
2022-08-26T02:43:31.396Z,64.24
2022-08-26T02:47:49.871Z,63.85
2022-08-26T02:52:06.473Z,63.82
2022-08-26T02:56:22.811Z,63.82
2022-08-26T03:00:39.744Z,63.05
2022-08-26T03:05:11.428Z,63.45
2022-08-26T03:09:28.091Z,62.60
2022-08-26T03:13:44.431Z,63.19
2022-08-26T03:18:00.412Z,63.51
2022-08-26T03:22:16.997Z,64.17
2022-08-26T03:26:33.019Z,63.78
2022-08-26T03:30:49.317Z,63.07
2022-08-26T03:35:06.279Z,62.06
2022-08-26T03:39:22.575Z,62.43
2022-08-26T03:43:39.163Z,62.70
2022-08-26T03:47:57.824Z,63.46
2022-08-26T03:52:14.389Z,63.12
2022-08-26T03:56:33.474Z,63.44
2022-08-26T04:00:55.559Z,63.68
2022-08-26T04:05:13.710Z,63.26
2022-08-26T04:09:29.690Z,62.23
2022-08-26T04:13:46.194Z,62.80
2022-08-26T04:18:03.605Z,63.19
2022-08-26T04:22:24.840Z,62.55
2022-08-26T04:26:42.548Z,62.69
2022-08-26T04:30:59.097Z,62.40
2022-08-26T04:35:15.130Z,61.88
2022-08-26T04:39:31.607Z,62.00
2022-08-26T04:43:48.986Z,62.04
2022-08-26T04:48:05.132Z,61.47
2022-08-26T04:52:21.311Z,61.68
2022-08-26T04:56:41.575Z,61.55
2022-08-26T05:00:59.119Z,61.09
2022-08-26T05:05:15.625Z,60.92
2022-08-26T05:09:34.316Z,60.29
2022-08-26T05:13:50.426Z,59.71
2022-08-26T05:18:07.673Z,58.29
2022-08-26T05:22:23.800Z,58.13
2022-08-26T05:26:41.449Z,60.21
2022-08-26T05:30:57.922Z,59.84
2022-08-26T05:35:13.978Z,59.78
2022-08-26T05:39:33.443Z,60.34
2022-08-26T05:43:50.777Z,60.08
2022-08-26T05:48:08.409Z,60.10
2022-08-26T05:52:26.146Z,59.71
2022-08-26T05:56:42.405Z,59.71
2022-08-26T06:01:10.852Z,59.79
2022-08-26T06:05:27.600Z,59.05
2022-08-26T06:09:44.376Z,59.19
2022-08-26T06:14:06.916Z,59.44
2022-08-26T06:18:27.487Z,59.32
2022-08-26T06:23:03.508Z,59.92
2022-08-26T06:27:20.379Z,60.86
2022-08-26T06:31:37.019Z,60.53
2022-08-26T06:35:56.155Z,60.20
2022-08-26T06:40:14.909Z,60.85
2022-08-26T06:44:32.376Z,59.22
2022-08-26T06:48:48.986Z,58.12
2022-08-26T06:53:05.107Z,56.84
2022-08-26T06:57:21.306Z,56.50
2022-08-26T07:01:46.054Z,57.47
2022-08-26T07:06:03.481Z,56.94
2022-08-26T07:10:19.907Z,55.96
2022-08-26T07:14:36.449Z,55.17
2022-08-26T07:18:53.790Z,53.80
2022-08-26T07:23:11.864Z,53.36
2022-08-26T07:27:27.958Z,52.76
2022-08-26T07:31:45.323Z,52.96
2022-08-26T07:36:04.192Z,53.08
2022-08-26T07:40:20.572Z,52.20
2022-08-26T07:44:37.884Z,51.19
2022-08-26T07:48:54.042Z,50.13
2022-08-26T07:53:10.710Z,47.24
2022-08-26T07:57:28.509Z,48.56
2022-08-26T08:01:45.576Z,45.69
2022-08-26T08:06:01.703Z,45.37
2022-08-26T08:10:22.667Z,44.98
2022-08-26T08:14:42.271Z,45.96
2022-08-26T08:18:59.729Z,40.83
2022-08-26T08:23:16.834Z,39.53
2022-08-26T08:27:37.449Z,38.22
2022-08-26T08:31:56.704Z,37.25
2022-08-26T08:36:18.416Z,35.89
2022-08-26T08:40:39.458Z,35.86
2022-08-26T08:45:02.933Z,35.35
2022-08-26T08:49:20.160Z,37.43
2022-08-26T08:53:43.189Z,35.16
2022-08-26T08:58:13.860Z,33.15
2022-08-26T09:02:37.065Z,33.39
2022-08-26T09:11:11.981Z,31.36
2022-08-26T09:15:59.807Z,32.15
2022-08-26T09:20:41.826Z,31.82
2022-08-26T09:25:02.572Z,32.36
2022-08-26T09:29:27.220Z,32.28
2022-08-26T09:33:43.453Z,30.98
2022-08-26T09:37:59.984Z,32.21
2022-08-26T09:42:23.373Z,31.18
2022-08-26T09:47:04.319Z,30.52
2022-08-26T09:51:32.027Z,29.60
2022-08-26T09:55:51.366Z,31.01
2022-08-26T10:00:30.353Z,31.60
2022-08-26T10:04:55.316Z,30.45
2022-08-26T10:09:18.027Z,28.78
2022-08-26T10:13:37.698Z,29.51
2022-08-26T10:18:17.576Z,29.16
2022-08-26T10:22:39.206Z,29.32
2022-08-26T10:27:05.996Z,29.30
2022-08-26T10:32:21.350Z,29.49
2022-08-26T10:41:32.342Z,30.84
2022-08-26T10:45:52.095Z,28.33
2022-08-26T10:50:08.387Z,28.32
2022-08-26T10:54:31.282Z,27.44
2022-08-26T10:59:12.247Z,27.64
2022-08-26T11:03:45.607Z,27.53
2022-08-26T11:08:30.911Z,27.78
2022-08-26T11:12:49.227Z,27.23
2022-08-26T11:17:08.951Z,26.60
2022-08-26T11:22:01.216Z,25.72
2022-08-26T11:26:37.633Z,24.03
2022-08-26T11:30:57.987Z,23.79
2022-08-26T11:35:20.678Z,23.19
2022-08-26T11:39:53.860Z,22.10
2022-08-26T11:44:11.563Z,22.81
2022-08-26T11:48:30.844Z,22.62
2022-08-26T11:53:19.232Z,20.99
2022-08-26T11:57:45.526Z,21.25
2022-08-26T12:02:01.750Z,21.32
2022-08-26T12:06:31.373Z,21.21
2022-08-26T12:10:49.118Z,20.35
2022-08-26T12:15:12.325Z,20.25
2022-08-26T12:19:33.005Z,19.76
2022-08-26T12:23:52.009Z,18.55
2022-08-26T12:28:09.280Z,18.48
2022-08-26T12:32:25.406Z,18.31
2022-08-26T12:36:53.039Z,16.51
2022-08-26T12:41:09.082Z,17.51
2022-08-26T12:45:37.743Z,18.15
2022-08-26T12:50:06.022Z,19.50
2022-08-26T12:54:41.937Z,19.92
2022-08-26T12:59:23.232Z,18.59
2022-08-26T13:03:43.785Z,18.23
2022-08-26T13:08:10.185Z,18.34
2022-08-26T13:12:34.490Z,18.83
2022-08-26T13:16:50.956Z,20.37
2022-08-26T13:21:21.975Z,18.92
2022-08-26T13:25:38.042Z,17.71
2022-08-26T13:29:55.053Z,17.36
2022-08-26T13:34:14.305Z,18.33
2022-08-26T13:38:33.246Z,17.19
2022-08-26T13:42:50.199Z,16.89
2022-08-26T13:47:07.023Z,17.98
2022-08-26T13:51:23.425Z,19.01
2022-08-26T13:55:39.391Z,17.92
2022-08-26T13:59:57.203Z,18.31
2022-08-26T14:04:13.295Z,19.19
2022-08-26T14:08:29.418Z,18.23
2022-08-26T14:12:45.875Z,18.35
2022-08-26T14:17:02.222Z,17.33
2022-08-26T14:21:18.489Z,17.92
2022-08-26T14:25:34.440Z,17.31
2022-08-26T14:29:50.410Z,17.98
2022-08-26T14:34:08.069Z,16.89
2022-08-26T14:38:24.024Z,17.67
2022-08-26T14:42:41.512Z,18.17
2022-08-26T14:46:59.480Z,18.40
2022-08-26T14:51:15.776Z,20.44
2022-08-26T14:55:33.608Z,20.52
2022-08-26T14:59:50.609Z,17.79
2022-08-26T15:04:06.842Z,20.90
2022-08-26T15:08:22.810Z,21.85
2022-08-26T15:12:40.367Z,19.77
2022-08-26T15:16:57.340Z,23.02
2022-08-26T15:21:15.122Z,20.61
2022-08-26T15:25:32.343Z,19.85
2022-08-26T15:29:48.330Z,21.83
2022-08-26T15:34:13.308Z,22.74
2022-08-26T15:38:33.910Z,23.37
2022-08-26T15:42:57.520Z,22.91
2022-08-26T15:47:17.382Z,24.09
2022-08-26T15:51:45.727Z,23.79
2022-08-26T15:56:02.884Z,24.26
2022-08-26T16:00:20.066Z,24.24
2022-08-26T16:04:36.135Z,25.38
2022-08-26T16:08:52.156Z,25.45
2022-08-26T16:13:10.392Z,26.02
2022-08-26T16:17:29.926Z,26.22
2022-08-26T16:21:46.576Z,26.62
2022-08-26T16:26:13.441Z,26.16
2022-08-26T16:30:29.523Z,26.81
2022-08-26T16:34:56.263Z,27.34
2022-08-26T16:39:13.073Z,27.40
2022-08-26T16:43:29.289Z,27.97
2022-08-26T16:47:45.387Z,28.05
2022-08-26T16:52:01.388Z,27.79
2022-08-26T16:56:19.911Z,28.25
2022-08-26T17:00:36.383Z,28.92
2022-08-26T17:04:52.783Z,31.07
2022-08-26T17:09:09.771Z,32.04
2022-08-26T17:13:35.094Z,32.27
2022-08-26T17:17:55.230Z,32.89
2022-08-26T17:22:11.936Z,34.12
2022-08-26T17:26:29.200Z,34.86
2022-08-26T17:30:45.484Z,34.54
2022-08-26T17:35:02.052Z,36.17
2022-08-26T17:39:18.371Z,36.39
2022-08-26T17:43:34.471Z,36.99
2022-08-26T17:47:50.473Z,37.65
2022-08-26T17:52:10.959Z,38.58
2022-08-26T17:56:29.381Z,38.10
2022-08-26T18:00:50.721Z,38.25
2022-08-26T18:05:08.427Z,38.91
2022-08-26T18:09:24.456Z,38.36
2022-08-26T18:13:47.350Z,39.03
2022-08-26T18:18:03.863Z,39.11
2022-08-26T18:22:19.838Z,39.47
2022-08-26T18:26:37.985Z,40.82
2022-08-26T18:30:54.159Z,41.39
2022-08-26T18:35:13.620Z,41.45
2022-08-26T18:39:29.656Z,41.86
2022-08-26T18:43:46.306Z,42.18
2022-08-26T18:48:03.007Z,41.92
2022-08-26T18:52:25.634Z,41.96
2022-08-26T18:56:42.509Z,43.56
2022-08-26T19:00:58.780Z,44.21
2022-08-26T19:05:14.873Z,44.19
2022-08-26T19:09:31.862Z,44.63
2022-08-26T19:13:49.150Z,44.86
2022-08-26T19:18:07.911Z,46.13
2022-08-26T19:22:26.927Z,44.90
2022-08-26T19:26:45.597Z,44.47
2022-08-26T19:31:01.700Z,45.69
2022-08-26T19:35:17.842Z,45.51
2022-08-26T19:39:37.022Z,46.08
2022-08-26T19:43:53.032Z,46.06
2022-08-26T19:48:14.779Z,47.83
2022-08-26T19:52:30.745Z,47.87
2022-08-26T19:56:49.657Z,46.76
2022-08-26T20:01:06.751Z,46.93
2022-08-26T20:05:24.600Z,46.48
2022-08-26T20:09:40.600Z,46.31
2022-08-26T20:13:57.239Z,47.48
2022-08-26T20:18:32.151Z,47.62
2022-08-26T20:22:48.302Z,48.21
2022-08-26T20:27:07.689Z,48.89
2022-08-26T20:31:25.555Z,46.80
2022-08-26T20:35:41.527Z,46.90
2022-08-26T20:39:57.515Z,46.77
2022-08-26T20:44:14.023Z,47.36
2022-08-26T20:48:30.843Z,48.00
2022-08-26T20:52:47.555Z,48.77
2022-08-26T20:57:03.668Z,48.68
2022-08-26T21:01:22.858Z,48.74
2022-08-26T21:05:38.847Z,49.32
2022-08-26T21:09:54.809Z,48.91
2022-08-26T21:14:16.783Z,48.71
2022-08-26T21:18:33.612Z,46.85
2022-08-26T21:22:50.207Z,47.40
2022-08-26T21:27:06.230Z,47.13
2022-08-26T21:31:24.172Z,48.02
2022-08-26T21:35:41.043Z,47.24
2022-08-26T21:39:58.678Z,47.14
2022-08-26T21:44:16.570Z,46.23
2022-08-26T21:48:34.735Z,46.18
2022-08-26T21:52:50.755Z,46.96
2022-08-26T21:57:07.004Z,47.69
2022-08-26T22:01:24.572Z,47.33
2022-08-26T22:05:50.598Z,46.79
2022-08-26T22:10:07.151Z,46.28
2022-08-26T22:14:30.430Z,47.10
2022-08-26T22:18:47.121Z,47.17
2022-08-26T22:23:03.266Z,47.40
2022-08-26T22:27:19.286Z,47.68
2022-08-26T22:31:37.660Z,47.31
2022-08-26T22:35:55.796Z,46.72
2022-08-26T22:40:13.083Z,47.08
2022-08-26T22:44:29.229Z,46.95
2022-08-26T22:48:45.389Z,47.22
2022-08-26T22:53:06.345Z,47.56
2022-08-26T22:57:22.817Z,47.81
2022-08-26T23:01:41.420Z,48.02
2022-08-26T23:05:57.644Z,48.40
2022-08-26T23:10:13.606Z,48.18
2022-08-26T23:14:31.606Z,48.83
2022-08-26T23:18:47.675Z,48.33
2022-08-26T23:23:04.020Z,47.65
2022-08-26T23:27:20.046Z,48.09
2022-08-26T23:31:38.050Z,48.01
2022-08-26T23:35:54.147Z,47.15
2022-08-26T23:40:13.735Z,47.48
2022-08-26T23:44:30.991Z,47.75
2022-08-26T23:48:47.620Z,47.90
2022-08-26T23:53:06.331Z,48.55
2022-08-26T23:57:24.261Z,48.43
